Terminal Aerodrome Forecast
Issued by NWS Central Illinois

Home | Current Version | Previous Version | Text Only | Print | Product List | Glossary On
Versions: 1 2 3 4 5 6 7 8 9 10 11 12 13 14 15 16 17 18 19 20 21
000
FTUS43 KILX 010500
TAFPIA
TAF
KPIA 010520Z 0106/0206 10012KT P6SM SCT250
     FM011400 16009KT P6SM SCT040 SCT250
     FM020000 14006KT P6SM BKN050=

USA.gov is the U.S. government's official web portal to all federal, state and local government web resources and services.